Munhall, PA

2:35 PM EST on January 26, 2015 (GMT -0500)
Lower Gates Manor | Change Station
CLOSE
Current Station
Personal Weather Station
Location: Munhall, PA
Elevation: 1050 ft
Nearby Weather Stations

Elev 1050 ft 40.39 °N, 79.92 °W | Updated 9 minutes ago

Snow
Snow Freezing Fog
32.2 °F
Feels Like 32 °F
N
0.0
Wind Variable Wind from NW

Today
High -- | Low -- °F
--% Chance of Precip.
Yesterday
High -- | Low -- °F
Precip. -- in
7:34 AM 5:30 PM
Waxing Crescent, 46% visible
Pressure 29.67 in
Visibility 0.2 miles
Clouds Overcast 500 ft
Windchill 32 °F
Dew Point 27 °F
Humidity 81%
Rainfall 0.00 in
Snow Depth Not available.
UV 1 out of 12
Pollen .10 out of 12
Air Quality Not available.
Flu Activity Not available.
SPECI KAGC 261923Z 33005KT 1/4SM R28/2600V3000FT SN FZFG OVC005 M02/M04 A2967 RMK AO2 P0002 T10221044

More Conditions Fewer Conditions

Pressure 29.67 in
Visibility 0.2 miles
Clouds Overcast 500 ft
Windchill 32 °F
Dew Point 27 °F
Humidity 81%
Rainfall 0.00 in
Snow Depth Not available.
UV 1 out of 12
Pollen .10 out of 12
Air Quality Not available.
Flu Activity Not available.
SPECI KAGC 261923Z 33005KT 1/4SM R28/2600V3000FT SN FZFG OVC005 M02/M04 A2967 RMK AO2 P0002 T10221044

More Conditions Fewer Conditions

10-Day Weather Forecast

Almanac

Astronomy

Jan. 26, 2015 Rise Set
Actual Time
Civil Twilight
Nautical Twilight
Astronomical Twilight
Moon
Length of Visible Light
Length of Day
Tomorrow will be .
, % of the Moon is Illuminated

Today's Extremes

State Highs State Lows

Community

WunderPhotos

Upload Photos

1,790,338 photos uploaded!

WunderBlogs® & News

Nearby

Air Quality

  Air Quality AQ Index Pollutant
Not available.

Snow Depth

Station Depth Elevation

Earthquake Activity

City Distance Mag. Time & Date
Minimum magnitude displayed is 2.5.

Coastal Water Temperatures

Place Temperature

Nearby Weather Stations